createdAt,value
2022-10-18T00:01:03.547Z,100919.41
2022-10-18T00:03:32.200Z,100910.81
2022-10-18T00:06:00.019Z,100908.94
2022-10-18T00:08:28.115Z,100919.47
2022-10-18T00:10:56.181Z,100910.03
2022-10-18T00:13:23.975Z,100916.50
2022-10-18T00:15:57.128Z,100917.28
2022-10-18T00:18:24.966Z,100903.81
2022-10-18T00:21:04.590Z,100907.87
2022-10-18T00:23:33.046Z,100900.88
2022-10-18T00:26:03.532Z,100904.06
2022-10-18T00:28:31.810Z,100896.28
2022-10-18T00:31:10.575Z,100893.59
2022-10-18T00:33:38.460Z,100898.16
2022-10-18T00:36:06.679Z,100900.34
2022-10-18T00:38:34.489Z,100894.69
2022-10-18T00:41:02.192Z,100893.34
2022-10-18T00:43:30.050Z,100900.31
2022-10-18T00:45:57.620Z,100893.59
2022-10-18T00:48:25.282Z,100892.00
2022-10-18T00:50:53.410Z,100886.31
2022-10-18T00:53:22.913Z,100887.41
2022-10-18T00:55:50.899Z,100884.47
2022-10-18T00:58:19.389Z,100880.94
2022-10-18T01:00:47.321Z,100885.28
2022-10-18T01:03:14.943Z,100882.84
2022-10-18T01:05:45.473Z,100883.12
2022-10-18T01:08:15.900Z,100880.72
2022-10-18T01:10:51.554Z,100881.78
2022-10-18T01:13:31.004Z,100873.69
2022-10-18T01:16:24.391Z,100875.03
2022-10-18T01:19:22.024Z,100870.75
2022-10-18T01:21:52.935Z,100867.22
2022-10-18T01:24:49.107Z,100871.56
2022-10-18T01:27:26.141Z,100868.84
2022-10-18T01:30:31.356Z,100867.53
2022-10-18T01:33:10.906Z,100861.88
2022-10-18T01:35:42.200Z,100856.47
2022-10-18T01:38:13.583Z,100858.13
2022-10-18T01:40:41.086Z,100849.75
2022-10-18T01:43:09.682Z,100844.66
2022-10-18T01:45:37.539Z,100847.34
2022-10-18T01:48:05.591Z,100840.87
2022-10-18T01:50:35.034Z,100841.41
2022-10-18T01:53:02.912Z,100841.69
2022-10-18T01:55:44.208Z,100837.94
2022-10-18T01:58:21.163Z,100832.53
2022-10-18T02:00:50.992Z,100825.81
2022-10-18T02:03:23.748Z,100829.87
2022-10-18T02:06:20.729Z,100821.81
2022-10-18T02:09:04.236Z,100836.84
2022-10-18T02:11:33.156Z,100824.19
2022-10-18T02:14:08.523Z,100827.75
2022-10-18T02:16:39.696Z,100832.31
2022-10-18T02:19:16.182Z,100824.25
2022-10-18T02:21:45.671Z,100823.16
2022-10-18T02:24:14.795Z,100831.22
2022-10-18T02:26:42.548Z,100823.69
2022-10-18T02:29:10.313Z,100817.78
2022-10-18T02:31:49.222Z,100826.13
2022-10-18T02:34:21.762Z,100823.44
2022-10-18T02:36:55.544Z,100822.38
2022-10-18T02:39:35.071Z,100825.59
2022-10-18T02:42:05.210Z,100824.50
2022-10-18T02:44:36.435Z,100819.97
2022-10-18T02:47:05.876Z,100820.19
2022-10-18T02:49:33.888Z,100822.63
2022-10-18T02:52:01.541Z,100822.09
2022-10-18T02:54:29.338Z,100819.41
2022-10-18T02:56:57.033Z,100823.97
2022-10-18T02:59:24.632Z,100826.41
2022-10-18T03:01:52.783Z,100821.00
2022-10-18T03:04:20.795Z,100822.09
2022-10-18T03:06:48.477Z,100824.25
2022-10-18T03:09:16.387Z,100827.22
2022-10-18T03:11:43.952Z,100821.56
2022-10-18T03:14:11.608Z,100831.78
2022-10-18T03:16:39.552Z,100839.03
2022-10-18T03:19:07.467Z,100829.59
2022-10-18T03:21:35.687Z,100824.75
2022-10-18T03:24:04.736Z,100822.66
2022-10-18T03:26:32.448Z,100832.28
2022-10-18T03:29:00.140Z,100825.06
2022-10-18T03:31:28.676Z,100831.75
2022-10-18T03:33:56.303Z,100838.50
2022-10-18T03:36:23.903Z,100827.44
2022-10-18T03:38:51.843Z,100830.13
2022-10-18T03:41:19.585Z,100838.75
2022-10-18T03:43:47.343Z,100844.66
2022-10-18T03:46:15.436Z,100839.00
2022-10-18T03:48:42.987Z,100845.72
2022-10-18T03:51:10.748Z,100834.66
2022-10-18T03:53:56.441Z,100836.59
2022-10-18T03:56:24.293Z,100832.25
2022-10-18T03:58:52.149Z,100834.44
2022-10-18T04:01:19.866Z,100831.47
2022-10-18T04:03:47.869Z,100829.56
2022-10-18T04:06:15.475Z,100836.59
2022-10-18T04:08:42.995Z,100839.50
2022-10-18T04:11:10.859Z,100833.31
2022-10-18T04:13:38.777Z,100834.72
2022-10-18T04:16:06.566Z,100836.81
2022-10-18T04:18:34.838Z,100840.03
2022-10-18T04:21:02.607Z,100832.50
2022-10-18T04:23:31.836Z,100827.44
2022-10-18T04:26:03.051Z,100829.84
2022-10-18T04:28:30.942Z,100830.09
2022-10-18T04:30:58.572Z,100825.00
2022-10-18T04:33:26.777Z,100832.25
2022-10-18T04:35:54.604Z,100831.69
2022-10-18T04:38:22.231Z,100832.78
2022-10-18T04:40:50.143Z,100830.88
2022-10-18T04:43:17.681Z,100829.25
2022-10-18T04:45:46.277Z,100833.84
2022-10-18T04:48:15.004Z,100827.09
2022-10-18T04:50:42.621Z,100825.47
2022-10-18T04:53:15.775Z,100830.03
2022-10-18T04:55:53.361Z,100821.16
2022-10-18T04:58:21.257Z,100832.97
2022-10-18T05:00:49.342Z,100831.62
2022-10-18T05:03:17.148Z,100828.41
2022-10-18T05:06:00.746Z,100827.03
2022-10-18T05:08:30.028Z,100815.69
2022-10-18T05:10:58.021Z,100818.66
2022-10-18T05:13:26.166Z,100823.03
2022-10-18T05:15:53.731Z,100819.81
2022-10-18T05:18:21.697Z,100820.09
2022-10-18T05:20:49.857Z,100817.94
2022-10-18T05:23:17.570Z,100823.84
2022-10-18T05:25:46.304Z,100821.91
2022-10-18T05:28:38.803Z,100817.41
2022-10-18T05:31:03.209Z,100821.34
2022-10-18T05:33:31.124Z,100820.31
2022-10-18T05:35:58.971Z,100820.03
2022-10-18T05:38:27.278Z,100827.25
2022-10-18T05:40:55.025Z,100827.59
2022-10-18T05:43:22.791Z,100830.00
2022-10-18T05:45:51.205Z,100823.28
2022-10-18T05:48:18.894Z,100819.53
2022-10-18T05:50:46.875Z,100823.78
2022-10-18T05:53:35.349Z,100825.09
2022-10-18T05:56:02.763Z,100827.78
2022-10-18T05:58:30.661Z,100826.78
2022-10-18T06:00:59.944Z,100822.41
2022-10-18T06:03:28.187Z,100818.66
2022-10-18T06:06:03.415Z,100825.97
2022-10-18T06:08:31.954Z,100823.56
2022-10-18T06:10:59.597Z,100824.66
2022-10-18T06:13:29.099Z,100826.28
2022-10-18T06:15:59.202Z,100828.97
2022-10-18T06:18:27.222Z,100834.91
2022-10-18T06:20:58.595Z,100831.19
2022-10-18T06:23:29.819Z,100829.34
2022-10-18T06:26:01.964Z,100829.09
2022-10-18T06:28:30.089Z,100834.75
2022-10-18T06:30:58.124Z,100836.34
2022-10-18T06:33:25.811Z,100840.66
2022-10-18T06:36:00.313Z,100846.00
2022-10-18T06:38:29.197Z,100842.75
2022-10-18T06:40:57.798Z,100844.06
2022-10-18T06:43:26.132Z,100845.97
2022-10-18T06:45:54.416Z,100844.03
2022-10-18T06:48:24.280Z,100844.00
2022-10-18T06:50:56.641Z,100844.03
2022-10-18T06:53:25.805Z,100854.78
2022-10-18T06:55:53.773Z,100846.34
2022-10-18T06:58:21.288Z,100852.25
2022-10-18T07:00:49.219Z,100852.78
2022-10-18T07:03:16.831Z,100856.19
2022-10-18T07:05:44.459Z,100849.09
2022-10-18T07:08:12.460Z,100857.97
2022-10-18T07:10:40.225Z,100860.87
2022-10-18T07:13:30.802Z,100851.22
2022-10-18T07:16:05.734Z,100852.34
2022-10-18T07:18:34.949Z,100852.25
2022-10-18T07:21:08.474Z,100859.94
2022-10-18T07:23:39.212Z,100858.31
2022-10-18T07:26:13.088Z,100856.66
2022-10-18T07:28:42.288Z,100860.37
2022-10-18T07:31:11.386Z,100862.84
2022-10-18T07:33:39.462Z,100850.97
2022-10-18T07:36:08.507Z,100851.47
2022-10-18T07:38:36.673Z,100847.50
2022-10-18T07:41:05.831Z,100846.44
2022-10-18T07:43:34.105Z,100838.28
2022-10-18T07:46:04.595Z,100842.22
2022-10-18T07:48:32.398Z,100840.41
2022-10-18T07:51:00.810Z,100841.22
2022-10-18T07:53:30.005Z,100839.75
2022-10-18T07:56:04.564Z,100841.44
2022-10-18T07:58:35.135Z,100838.06
2022-10-18T08:01:07.111Z,100837.97
2022-10-18T08:03:36.139Z,100831.16
2022-10-18T08:06:04.113Z,100831.53
2022-10-18T08:08:31.656Z,100823.91
2022-10-18T08:11:05.290Z,100822.59
2022-10-18T08:13:32.937Z,100817.88
2022-10-18T08:16:09.328Z,100814.03
2022-10-18T08:18:37.559Z,100811.88
2022-10-18T08:21:07.495Z,100811.28
2022-10-18T08:23:35.325Z,100815.81
2022-10-18T08:26:08.483Z,100806.13
2022-10-18T08:28:36.952Z,100809.78
2022-10-18T08:31:06.659Z,100799.53
2022-10-18T08:33:34.435Z,100805.72
2022-10-18T08:36:04.485Z,100799.19
2022-10-18T08:38:35.569Z,100796.00
2022-10-18T08:41:34.390Z,100789.63
2022-10-18T08:44:20.605Z,100787.84
2022-10-18T08:46:50.702Z,100783.00
2022-10-18T08:49:40.854Z,100788.66
2022-10-18T08:52:16.710Z,100780.66
2022-10-18T08:54:55.212Z,100773.13
2022-10-18T08:57:27.858Z,100775.87
2022-10-18T08:59:55.838Z,100770.22
2022-10-18T09:02:46.210Z,100766.41
2022-10-18T09:05:17.438Z,100764.31
2022-10-18T09:08:39.470Z,100765.94
2022-10-18T09:11:24.781Z,100761.66
2022-10-18T09:14:24.613Z,100757.09
2022-10-18T09:16:54.723Z,100757.50
2022-10-18T09:19:42.507Z,100753.72
2022-10-18T09:22:18.695Z,100759.50
2022-10-18T09:25:02.646Z,100747.00
2022-10-18T09:28:03.992Z,100742.03
2022-10-18T09:30:45.670Z,100746.38
2022-10-18T09:33:19.271Z,100744.38
2022-10-18T09:35:58.836Z,100741.53
2022-10-18T09:38:29.762Z,100739.94
2022-10-18T09:41:40.737Z,100736.78
2022-10-18T09:44:15.915Z,100731.75
2022-10-18T09:46:47.962Z,100738.50
2022-10-18T09:49:22.359Z,100722.91
2022-10-18T09:51:52.220Z,100725.28
2022-10-18T09:54:24.700Z,100728.53
2022-10-18T09:57:03.051Z,100717.41
2022-10-18T09:59:41.076Z,100718.97
2022-10-18T10:02:19.953Z,100721.87
2022-10-18T10:04:48.658Z,100722.25
2022-10-18T10:07:29.950Z,100718.00
2022-10-18T10:10:13.075Z,100711.09
2022-10-18T10:12:43.329Z,100708.13
2022-10-18T10:15:22.651Z,100703.34
2022-10-18T10:17:58.518Z,100693.25
2022-10-18T10:20:30.168Z,100693.19
2022-10-18T10:23:06.216Z,100683.78
2022-10-18T10:25:37.776Z,100685.56
2022-10-18T10:28:12.165Z,100681.66
2022-10-18T10:30:40.113Z,100675.38
2022-10-18T10:33:37.488Z,100673.00
2022-10-18T10:36:15.183Z,100666.97
2022-10-18T10:38:42.827Z,100661.91
2022-10-18T10:41:21.240Z,100658.63
2022-10-18T10:43:50.036Z,100643.31
2022-10-18T10:46:19.479Z,100648.84
2022-10-18T10:48:47.446Z,100643.75
2022-10-18T10:51:18.420Z,100639.44
2022-10-18T10:53:51.321Z,100634.00
2022-10-18T10:56:25.466Z,100636.16
2022-10-18T10:58:54.748Z,100628.06
2022-10-18T11:01:32.215Z,100622.25
2022-10-18T11:04:23.428Z,100626.50
2022-10-18T11:07:09.327Z,100618.03
2022-10-18T11:09:37.759Z,100617.63
2022-10-18T11:12:11.848Z,100612.22
2022-10-18T11:14:43.115Z,100597.16
2022-10-18T11:17:34.467Z,100594.41
2022-10-18T11:20:12.504Z,100594.34
2022-10-18T11:22:43.467Z,100588.28
2022-10-18T11:25:15.997Z,100585.94
2022-10-18T11:28:03.864Z,100587.00
2022-10-18T11:31:07.601Z,100585.50
2022-10-18T11:34:12.857Z,100580.22
2022-10-18T11:36:56.055Z,100576.50
2022-10-18T11:39:33.312Z,100566.31
2022-10-18T11:42:58.804Z,100564.06
2022-10-18T11:46:01.860Z,100555.97
2022-10-18T11:48:54.863Z,100552.47
2022-10-18T11:51:56.316Z,100555.19
2022-10-18T11:54:54.216Z,100551.59
2022-10-18T11:57:43.719Z,100543.16
2022-10-18T12:00:23.622Z,100540.47
2022-10-18T12:03:18.085Z,100529.78
2022-10-18T12:05:47.476Z,100527.84
2022-10-18T12:08:20.277Z,100531.28
2022-10-18T12:11:06.717Z,100515.56
2022-10-18T12:13:51.542Z,100517.25
2022-10-18T12:16:38.832Z,100517.16
2022-10-18T12:19:23.352Z,100507.03
2022-10-18T12:21:57.029Z,100504.41
2022-10-18T12:24:28.123Z,100498.25
2022-10-18T12:26:59.751Z,100498.66
2022-10-18T12:29:45.478Z,100499.59
2022-10-18T12:32:19.708Z,100488.91
2022-10-18T12:34:58.334Z,100491.75
2022-10-18T12:37:32.378Z,100482.56
2022-10-18T12:40:25.997Z,100468.53
2022-10-18T12:42:53.656Z,100472.03
2022-10-18T12:45:33.063Z,100468.41
2022-10-18T12:48:02.896Z,100464.34
2022-10-18T12:50:42.448Z,100468.41
2022-10-18T12:53:09.974Z,100464.00
2022-10-18T12:58:34.743Z,100455.81
2022-10-18T13:01:05.024Z,100453.34
2022-10-18T13:03:55.907Z,100445.41
2022-10-18T13:06:24.207Z,100456.09
2022-10-18T13:09:18.778Z,100451.44
2022-10-18T13:11:46.780Z,100444.19
2022-10-18T13:14:23.935Z,100440.50
2022-10-18T13:17:02.769Z,100432.56
2022-10-18T13:19:44.682Z,100432.56
2022-10-18T13:22:37.059Z,100422.00
2022-10-18T13:25:23.177Z,100421.41
2022-10-18T13:28:39.164Z,100420.41
2022-10-18T13:31:36.088Z,100419.78
2022-10-18T13:34:36.525Z,100426.22
2022-10-18T13:37:10.085Z,100417.59
2022-10-18T13:39:39.856Z,100423.66
2022-10-18T13:42:19.675Z,100419.63
2022-10-18T13:44:47.681Z,100414.69
2022-10-18T13:47:22.582Z,100411.06
2022-10-18T13:50:10.478Z,100411.75
2022-10-18T13:52:44.772Z,100405.38
2022-10-18T13:55:57.548Z,100400.63
2022-10-18T13:58:48.924Z,100405.59
2022-10-18T14:01:27.381Z,100401.09
2022-10-18T14:03:58.302Z,100397.72
2022-10-18T14:06:35.517Z,100396.75
2022-10-18T14:09:25.548Z,100392.38
2022-10-18T14:12:08.289Z,100401.16
2022-10-18T14:14:47.803Z,100395.06
2022-10-18T14:17:36.851Z,100386.34
2022-10-18T14:20:27.334Z,100380.44
2022-10-18T14:23:16.851Z,100378.75
2022-10-18T14:25:46.778Z,100385.41
2022-10-18T14:28:14.203Z,100372.84
2022-10-18T14:30:59.128Z,100368.97
2022-10-18T14:33:50.155Z,100373.03
2022-10-18T14:36:19.258Z,100369.44
2022-10-18T14:38:56.999Z,100359.19
2022-10-18T14:41:29.734Z,100360.13
2022-10-18T14:44:15.979Z,100358.06
2022-10-18T14:46:46.707Z,100360.44
2022-10-18T14:49:15.266Z,100355.31
2022-10-18T14:51:44.541Z,100353.62
2022-10-18T14:54:20.485Z,100363.63
2022-10-18T14:56:48.633Z,100346.56
2022-10-18T14:59:19.316Z,100346.25
2022-10-18T15:02:03.341Z,100350.78
2022-10-18T15:04:31.521Z,100342.94
2022-10-18T15:07:04.580Z,100343.03
2022-10-18T15:09:35.075Z,100337.47
2022-10-18T15:12:05.166Z,100340.09
2022-10-18T15:14:36.764Z,100333.94
2022-10-18T15:17:15.208Z,100334.03
2022-10-18T15:20:00.532Z,100328.50
2022-10-18T15:22:33.210Z,100323.25
2022-10-18T15:25:04.426Z,100319.47
2022-10-18T15:27:35.497Z,100318.03
2022-10-18T15:30:37.688Z,100310.09
2022-10-18T15:33:05.678Z,100301.00
2022-10-18T15:35:35.463Z,100314.44
2022-10-18T15:38:24.539Z,100313.53
2022-10-18T15:40:52.655Z,100308.47
2022-10-18T15:43:23.273Z,100308.28
2022-10-18T15:46:13.638Z,100303.41
2022-10-18T15:48:41.882Z,100303.75
2022-10-18T15:51:47.068Z,100303.06
2022-10-18T15:54:19.584Z,100299.25
2022-10-18T15:56:47.220Z,100309.34
2022-10-18T15:59:26.530Z,100304.91
2022-10-18T16:01:56.768Z,100302.81
2022-10-18T16:04:32.407Z,100303.75
2022-10-18T16:07:00.390Z,100308.97
2022-10-18T16:09:29.258Z,100319.78
2022-10-18T16:11:57.575Z,100311.66
2022-10-18T16:14:26.886Z,100314.41
2022-10-18T16:17:02.565Z,100315.37
2022-10-18T16:19:31.373Z,100319.63
2022-10-18T16:22:05.154Z,100324.19
2022-10-18T16:24:34.109Z,100322.63
2022-10-18T16:27:02.069Z,100320.84
2022-10-18T16:29:31.063Z,100311.69
2022-10-18T16:32:00.554Z,100322.25
2022-10-18T16:34:28.702Z,100321.56
2022-10-18T16:36:56.254Z,100330.97
2022-10-18T16:39:24.265Z,100331.16
2022-10-18T16:41:52.328Z,100325.75
2022-10-18T16:44:20.027Z,100318.03
2022-10-18T16:46:51.070Z,100323.16
2022-10-18T16:49:25.702Z,100315.47
2022-10-18T16:51:54.027Z,100315.97
2022-10-18T16:54:22.343Z,100316.56
2022-10-18T16:56:50.120Z,100311.75
2022-10-18T16:59:23.367Z,100313.56
2022-10-18T17:01:51.365Z,100316.56
2022-10-18T17:04:18.991Z,100308.97
2022-10-18T17:06:46.622Z,100310.75
2022-10-18T17:09:15.385Z,100308.78
2022-10-18T17:11:43.340Z,100309.97
2022-10-18T17:14:10.952Z,100309.19
2022-10-18T17:16:52.323Z,100310.19
2022-10-18T17:19:23.635Z,100308.66
2022-10-18T17:21:51.733Z,100310.34
2022-10-18T17:24:21.442Z,100309.13
2022-10-18T17:26:49.041Z,100307.22
2022-10-18T17:29:17.174Z,100303.12
2022-10-18T17:31:46.994Z,100304.44
2022-10-18T17:34:17.586Z,100301.97
2022-10-18T17:36:49.146Z,100300.03
2022-10-18T17:39:19.618Z,100302.28
2022-10-18T17:41:47.185Z,100300.91
2022-10-18T17:44:15.257Z,100298.06
2022-10-18T17:46:42.925Z,100311.41
2022-10-18T17:49:10.812Z,100304.69
2022-10-18T17:51:39.125Z,100311.37
2022-10-18T17:54:08.151Z,100310.28
2022-10-18T17:56:36.230Z,100306.50
2022-10-18T17:59:04.955Z,100308.91
2022-10-18T18:01:32.765Z,100300.53
2022-10-18T18:04:01.989Z,100303.38
2022-10-18T18:06:35.463Z,100299.56
2022-10-18T18:09:10.631Z,100308.37
2022-10-18T18:11:40.121Z,100303.28
2022-10-18T18:14:08.053Z,100299.66
2022-10-18T18:16:37.911Z,100293.38
2022-10-18T18:19:09.524Z,100282.47
2022-10-18T18:21:38.617Z,100282.47
2022-10-18T18:24:06.481Z,100283.97
2022-10-18T18:26:35.111Z,100284.72
2022-10-18T18:31:39.980Z,100281.44
2022-10-18T18:34:10.092Z,100284.66
2022-10-18T18:36:38.139Z,100280.03
2022-10-18T18:39:06.291Z,100280.41
2022-10-18T18:41:35.817Z,100274.37
2022-10-18T18:44:05.120Z,100275.25
2022-10-18T18:46:34.894Z,100272.84
2022-10-18T18:49:03.999Z,100276.31
2022-10-18T18:51:33.056Z,100265.84
2022-10-18T18:54:00.773Z,100267.59
2022-10-18T18:56:31.686Z,100276.03
2022-10-18T18:58:59.990Z,100270.00
2022-10-18T19:01:30.702Z,100264.84
2022-10-18T19:03:59.520Z,100254.09
2022-10-18T19:06:30.497Z,100252.94
2022-10-18T19:08:59.190Z,100259.78
2022-10-18T19:11:32.536Z,100251.41
2022-10-18T19:14:01.228Z,100252.25
2022-10-18T19:16:30.802Z,100248.19
2022-10-18T19:19:08.290Z,100252.12
2022-10-18T19:21:43.123Z,100251.72
2022-10-18T19:24:11.824Z,100243.66
2022-10-18T19:26:45.854Z,100236.69
2022-10-18T19:29:14.091Z,100235.97
2022-10-18T19:31:42.645Z,100228.94
2022-10-18T19:34:12.470Z,100231.28
2022-10-18T19:36:41.765Z,100230.44
2022-10-18T19:39:14.704Z,100236.87
2022-10-18T19:41:42.433Z,100238.44
2022-10-18T19:44:10.352Z,100231.47
2022-10-18T19:46:38.579Z,100236.03
2022-10-18T19:49:06.786Z,100235.91
2022-10-18T19:51:34.939Z,100222.63
2022-10-18T19:54:02.513Z,100232.19
2022-10-18T19:56:30.736Z,100222.38
2022-10-18T19:58:59.130Z,100223.50
2022-10-18T20:01:30.789Z,100228.88
2022-10-18T20:03:58.808Z,100232.44
2022-10-18T20:06:27.051Z,100230.37
2022-10-18T20:08:55.243Z,100229.66
2022-10-18T20:11:25.257Z,100239.69
2022-10-18T20:13:52.963Z,100231.28
2022-10-18T20:16:27.709Z,100226.97
2022-10-18T20:18:58.049Z,100224.63
2022-10-18T20:21:26.906Z,100218.16
2022-10-18T20:23:54.643Z,100220.06
2022-10-18T20:26:23.196Z,100220.06
2022-10-18T20:28:52.602Z,100224.47
2022-10-18T20:31:20.339Z,100212.28
2022-10-18T20:33:54.248Z,100214.75
2022-10-18T20:36:21.889Z,100211.53
2022-10-18T20:38:50.001Z,100217.22
2022-10-18T20:41:28.720Z,100203.09
2022-10-18T20:43:58.645Z,100219.22
2022-10-18T20:46:30.350Z,100214.19
2022-10-18T20:49:00.386Z,100211.22
2022-10-18T20:51:28.792Z,100211.00
2022-10-18T20:53:57.048Z,100208.19
2022-10-18T20:56:26.971Z,100214.88
2022-10-18T20:58:56.433Z,100218.75
2022-10-18T21:01:28.043Z,100205.28
2022-10-18T21:04:09.644Z,100207.44
2022-10-18T21:06:39.719Z,100210.69
2022-10-18T21:09:15.955Z,100210.53
2022-10-18T21:11:46.059Z,100196.75
2022-10-18T21:14:16.213Z,100194.34
2022-10-18T21:16:44.033Z,100195.97
2022-10-18T21:19:29.616Z,100191.50
2022-10-18T21:21:57.945Z,100185.97
2022-10-18T21:24:26.360Z,100198.00
2022-10-18T21:26:53.894Z,100190.97
2022-10-18T21:29:22.963Z,100185.41
2022-10-18T21:31:54.728Z,100186.13
2022-10-18T21:34:22.705Z,100178.97
2022-10-18T21:36:50.745Z,100175.87
2022-10-18T21:39:21.880Z,100177.22
2022-10-18T21:41:50.047Z,100181.97
2022-10-18T21:44:18.155Z,100179.59
2022-10-18T21:46:46.049Z,100175.25
2022-10-18T21:49:14.897Z,100172.78
2022-10-18T21:51:42.890Z,100167.03
2022-10-18T21:54:15.463Z,100162.63
2022-10-18T21:56:43.590Z,100156.03
2022-10-18T21:59:12.705Z,100164.06
2022-10-18T22:01:40.739Z,100161.94
2022-10-18T22:04:18.544Z,100155.53
2022-10-18T22:06:46.727Z,100157.25
2022-10-18T22:09:14.613Z,100144.22
2022-10-18T22:11:49.892Z,100141.81
2022-10-18T22:14:17.965Z,100135.66
2022-10-18T22:16:45.606Z,100138.87
2022-10-18T22:19:13.553Z,100146.06
2022-10-18T22:21:41.491Z,100140.69
2022-10-18T22:24:09.919Z,100143.59
2022-10-18T22:26:39.945Z,100141.31
2022-10-18T22:29:16.166Z,100131.03
2022-10-18T22:31:47.223Z,100120.81
2022-10-18T22:34:16.531Z,100121.59
2022-10-18T22:36:44.617Z,100114.13
2022-10-18T22:39:12.896Z,100108.00
2022-10-18T22:41:41.502Z,100108.06
2022-10-18T22:44:11.540Z,100112.22
2022-10-18T22:46:39.853Z,100117.19
2022-10-18T22:49:07.924Z,100106.62
2022-10-18T22:54:09.087Z,100108.59
2022-10-18T22:56:36.789Z,100110.78
2022-10-18T22:59:04.447Z,100114.53
2022-10-18T23:01:32.293Z,100110.12
2022-10-18T23:04:00.574Z,100107.78
2022-10-18T23:06:33.201Z,100114.69
2022-10-18T23:09:04.461Z,100119.13
2022-10-18T23:11:32.178Z,100121.91
2022-10-18T23:13:59.982Z,100116.69
2022-10-18T23:16:28.064Z,100114.06
2022-10-18T23:18:56.874Z,100114.28
2022-10-18T23:21:26.229Z,100111.87
2022-10-18T23:23:54.319Z,100117.47
2022-10-18T23:26:24.316Z,100113.72
2022-10-18T23:28:53.687Z,100111.09
2022-10-18T23:31:21.555Z,100110.84
2022-10-18T23:33:51.237Z,100108.91
2022-10-18T23:36:20.947Z,100098.94
2022-10-18T23:38:49.264Z,100091.66
2022-10-18T23:41:17.640Z,100094.41
2022-10-18T23:43:45.789Z,100088.81
2022-10-18T23:46:15.014Z,100092.38
2022-10-18T23:48:43.025Z,100099.06
2022-10-18T23:51:11.563Z,100094.19
2022-10-18T23:53:39.722Z,100090.12
2022-10-18T23:56:10.149Z,100090.66
2022-10-18T23:58:38.576Z,100094.31
